sensor_id;sensor_type;location;lat;lon;timestamp;temperature;humidity
10873;DHT22;34586;53.616;10.032;2023-07-28T00:01:02;16.40;99.90
10873;DHT22;34586;53.616;10.032;2023-07-28T00:03:28;16.40;99.90
10873;DHT22;34586;53.616;10.032;2023-07-28T00:05:53;16.50;99.90
10873;DHT22;34586;53.616;10.032;2023-07-28T00:08:19;16.50;99.90
10873;DHT22;34586;53.616;10.032;2023-07-28T00:10:44;16.50;99.90
10873;DHT22;34586;53.616;10.032;2023-07-28T00:13:10;16.50;99.90
10873;DHT22;34586;53.616;10.032;2023-07-28T00:15:36;16.40;99.90
10873;DHT22;34586;53.616;10.032;2023-07-28T00:18:01;16.40;99.90
10873;DHT22;34586;53.616;10.032;2023-07-28T00:20:27;16.50;99.90
10873;DHT22;34586;53.616;10.032;2023-07-28T00:22:53;16.40;99.90
10873;DHT22;34586;53.616;10.032;2023-07-28T00:25:19;16.40;99.90
10873;DHT22;34586;53.616;10.032;2023-07-28T00:27:44;16.40;99.90
10873;DHT22;34586;53.616;10.032;2023-07-28T00:30:11;16.40;99.90
10873;DHT22;34586;53.616;10.032;2023-07-28T00:32:36;16.40;99.90
10873;DHT22;34586;53.616;10.032;2023-07-28T00:35:02;16.40;99.90
10873;DHT22;34586;53.616;10.032;2023-07-28T00:37:28;16.40;99.90
10873;DHT22;34586;53.616;10.032;2023-07-28T00:39:54;16.40;99.90
10873;DHT22;34586;53.616;10.032;2023-07-28T00:42:19;16.40;99.90
10873;DHT22;34586;53.616;10.032;2023-07-28T00:44:45;16.40;99.90
10873;DHT22;34586;53.616;10.032;2023-07-28T00:47:11;16.40;99.90
10873;DHT22;34586;53.616;10.032;2023-07-28T00:49:38;16.40;99.90
10873;DHT22;34586;53.616;10.032;2023-07-28T00:52:07;16.40;99.90
10873;DHT22;34586;53.616;10.032;2023-07-28T00:54:33;16.40;99.90
10873;DHT22;34586;53.616;10.032;2023-07-28T00:56:59;16.30;99.90
10873;DHT22;34586;53.616;10.032;2023-07-28T00:59:26;16.30;99.90
10873;DHT22;34586;53.616;10.032;2023-07-28T01:01:52;16.30;99.90
10873;DHT22;34586;53.616;10.032;2023-07-28T01:04:18;16.40;99.90
10873;DHT22;34586;53.616;10.032;2023-07-28T01:07:10;16.30;99.90
10873;DHT22;34586;53.616;10.032;2023-07-28T01:09:49;16.40;99.90
10873;DHT22;34586;53.616;10.032;2023-07-28T01:12:16;16.40;99.90
10873;DHT22;34586;53.616;10.032;2023-07-28T01:14:43;16.40;99.90
10873;DHT22;34586;53.616;10.032;2023-07-28T01:17:08;16.40;99.90
10873;DHT22;34586;53.616;10.032;2023-07-28T01:19:34;16.40;99.90
10873;DHT22;34586;53.616;10.032;2023-07-28T01:25:06;16.40;99.90
10873;DHT22;34586;53.616;10.032;2023-07-28T01:27:33;16.40;99.90
10873;DHT22;34586;53.616;10.032;2023-07-28T01:29:59;16.40;99.90
10873;DHT22;34586;53.616;10.032;2023-07-28T01:32:24;16.30;99.90
10873;DHT22;34586;53.616;10.032;2023-07-28T01:34:50;16.30;99.90
10873;DHT22;34586;53.616;10.032;2023-07-28T01:37:15;16.30;99.90
10873;DHT22;34586;53.616;10.032;2023-07-28T01:39:42;16.30;99.90
10873;DHT22;34586;53.616;10.032;2023-07-28T01:42:07;16.30;99.90
10873;DHT22;34586;53.616;10.032;2023-07-28T01:44:33;16.30;99.90
10873;DHT22;34586;53.616;10.032;2023-07-28T01:46:58;16.30;99.90
10873;DHT22;34586;53.616;10.032;2023-07-28T01:49:24;16.30;99.90
10873;DHT22;34586;53.616;10.032;2023-07-28T01:51:49;16.30;99.90
10873;DHT22;34586;53.616;10.032;2023-07-28T01:54:15;16.30;99.90
10873;DHT22;34586;53.616;10.032;2023-07-28T01:56:41;16.30;99.90
10873;DHT22;34586;53.616;10.032;2023-07-28T01:59:06;16.30;99.90
10873;DHT22;34586;53.616;10.032;2023-07-28T02:01:32;16.30;99.90
10873;DHT22;34586;53.616;10.032;2023-07-28T02:03:57;16.30;99.90
10873;DHT22;34586;53.616;10.032;2023-07-28T02:06:23;16.30;99.90
10873;DHT22;34586;53.616;10.032;2023-07-28T02:08:48;16.30;99.90
10873;DHT22;34586;53.616;10.032;2023-07-28T02:11:14;16.30;99.90
10873;DHT22;34586;53.616;10.032;2023-07-28T02:13:40;16.30;99.90
10873;DHT22;34586;53.616;10.032;2023-07-28T02:16:05;16.30;99.90
10873;DHT22;34586;53.616;10.032;2023-07-28T02:18:31;16.30;99.90
10873;DHT22;34586;53.616;10.032;2023-07-28T02:20:56;16.30;99.90
10873;DHT22;34586;53.616;10.032;2023-07-28T02:23:22;16.30;99.90
10873;DHT22;34586;53.616;10.032;2023-07-28T02:25:48;16.30;99.90
10873;DHT22;34586;53.616;10.032;2023-07-28T02:28:14;16.30;99.90
10873;DHT22;34586;53.616;10.032;2023-07-28T02:30:39;16.30;99.90
10873;DHT22;34586;53.616;10.032;2023-07-28T02:33:05;16.30;99.90
10873;DHT22;34586;53.616;10.032;2023-07-28T02:35:30;16.30;99.90
10873;DHT22;34586;53.616;10.032;2023-07-28T02:37:57;16.30;99.90
10873;DHT22;34586;53.616;10.032;2023-07-28T02:40:23;16.20;99.90
10873;DHT22;34586;53.616;10.032;2023-07-28T02:42:49;16.20;99.90
10873;DHT22;34586;53.616;10.032;2023-07-28T02:45:15;16.20;99.90
10873;DHT22;34586;53.616;10.032;2023-07-28T02:47:40;16.20;99.90
10873;DHT22;34586;53.616;10.032;2023-07-28T02:50:06;16.30;99.90
10873;DHT22;34586;53.616;10.032;2023-07-28T02:52:31;16.20;99.90
10873;DHT22;34586;53.616;10.032;2023-07-28T02:54:57;16.20;99.90
10873;DHT22;34586;53.616;10.032;2023-07-28T02:57:23;16.20;99.90
10873;DHT22;34586;53.616;10.032;2023-07-28T02:59:48;16.10;99.90
10873;DHT22;34586;53.616;10.032;2023-07-28T03:02:14;16.10;99.90
10873;DHT22;34586;53.616;10.032;2023-07-28T03:04:39;16.10;99.90
10873;DHT22;34586;53.616;10.032;2023-07-28T03:07:05;16.10;99.90
10873;DHT22;34586;53.616;10.032;2023-07-28T03:09:30;16.10;99.90
10873;DHT22;34586;53.616;10.032;2023-07-28T03:11:56;16.10;99.90
10873;DHT22;34586;53.616;10.032;2023-07-28T03:14:21;16.10;99.90
10873;DHT22;34586;53.616;10.032;2023-07-28T03:16:47;16.10;99.90
10873;DHT22;34586;53.616;10.032;2023-07-28T03:19:13;16.10;99.90
10873;DHT22;34586;53.616;10.032;2023-07-28T03:21:38;16.10;99.90
10873;DHT22;34586;53.616;10.032;2023-07-28T03:24:04;16.10;99.90
10873;DHT22;34586;53.616;10.032;2023-07-28T03:26:30;16.10;99.90
10873;DHT22;34586;53.616;10.032;2023-07-28T03:28:55;16.00;99.90
10873;DHT22;34586;53.616;10.032;2023-07-28T03:31:21;16.10;99.90
10873;DHT22;34586;53.616;10.032;2023-07-28T03:33:46;16.10;99.90
10873;DHT22;34586;53.616;10.032;2023-07-28T03:36:12;16.10;99.90
10873;DHT22;34586;53.616;10.032;2023-07-28T03:38:38;16.10;99.90
10873;DHT22;34586;53.616;10.032;2023-07-28T03:41:03;16.10;99.90
10873;DHT22;34586;53.616;10.032;2023-07-28T03:43:29;16.10;99.90
10873;DHT22;34586;53.616;10.032;2023-07-28T03:45:54;16.10;99.90
10873;DHT22;34586;53.616;10.032;2023-07-28T03:48:20;16.10;99.90
10873;DHT22;34586;53.616;10.032;2023-07-28T03:50:45;16.10;99.90
10873;DHT22;34586;53.616;10.032;2023-07-28T03:53:11;16.10;99.90
10873;DHT22;34586;53.616;10.032;2023-07-28T03:55:37;16.10;99.90
10873;DHT22;34586;53.616;10.032;2023-07-28T03:58:02;16.10;99.90
10873;DHT22;34586;53.616;10.032;2023-07-28T04:00:28;16.00;99.90
10873;DHT22;34586;53.616;10.032;2023-07-28T04:02:54;16.10;99.90
10873;DHT22;34586;53.616;10.032;2023-07-28T04:05:20;16.10;99.90
10873;DHT22;34586;53.616;10.032;2023-07-28T04:07:45;16.10;99.90
10873;DHT22;34586;53.616;10.032;2023-07-28T04:10:11;16.10;99.90
10873;DHT22;34586;53.616;10.032;2023-07-28T04:12:36;16.20;99.90
10873;DHT22;34586;53.616;10.032;2023-07-28T04:15:02;16.20;99.90
10873;DHT22;34586;53.616;10.032;2023-07-28T04:17:28;16.20;99.90
10873;DHT22;34586;53.616;10.032;2023-07-28T04:19:53;16.20;99.90
10873;DHT22;34586;53.616;10.032;2023-07-28T04:22:19;16.20;99.90
10873;DHT22;34586;53.616;10.032;2023-07-28T04:24:47;16.20;99.90
10873;DHT22;34586;53.616;10.032;2023-07-28T04:27:13;16.20;99.90
10873;DHT22;34586;53.616;10.032;2023-07-28T04:29:39;16.20;99.90
10873;DHT22;34586;53.616;10.032;2023-07-28T04:32:05;16.30;99.90
10873;DHT22;34586;53.616;10.032;2023-07-28T04:34:33;16.20;99.90
10873;DHT22;34586;53.616;10.032;2023-07-28T04:36:58;16.30;99.90
10873;DHT22;34586;53.616;10.032;2023-07-28T04:39:24;16.20;99.90
10873;DHT22;34586;53.616;10.032;2023-07-28T04:41:50;16.30;99.90
10873;DHT22;34586;53.616;10.032;2023-07-28T04:44:16;16.40;99.90
10873;DHT22;34586;53.616;10.032;2023-07-28T04:46:42;16.30;99.90
10873;DHT22;34586;53.616;10.032;2023-07-28T04:49:07;16.40;99.90
10873;DHT22;34586;53.616;10.032;2023-07-28T04:51:33;16.40;99.90
10873;DHT22;34586;53.616;10.032;2023-07-28T04:53:58;16.40;99.90
10873;DHT22;34586;53.616;10.032;2023-07-28T04:56:24;16.50;99.90
10873;DHT22;34586;53.616;10.032;2023-07-28T04:58:49;16.50;99.90
10873;DHT22;34586;53.616;10.032;2023-07-28T05:01:15;16.50;99.90
10873;DHT22;34586;53.616;10.032;2023-07-28T05:03:41;16.60;99.90
10873;DHT22;34586;53.616;10.032;2023-07-28T05:06:06;16.60;99.90
10873;DHT22;34586;53.616;10.032;2023-07-28T05:08:32;16.50;99.90
10873;DHT22;34586;53.616;10.032;2023-07-28T05:10:58;16.60;99.90
10873;DHT22;34586;53.616;10.032;2023-07-28T05:13:23;16.70;99.90
10873;DHT22;34586;53.616;10.032;2023-07-28T05:15:49;16.70;99.90
10873;DHT22;34586;53.616;10.032;2023-07-28T05:18:14;16.70;99.90
10873;DHT22;34586;53.616;10.032;2023-07-28T05:20:40;16.80;99.90
10873;DHT22;34586;53.616;10.032;2023-07-28T05:23:05;16.80;99.90
10873;DHT22;34586;53.616;10.032;2023-07-28T05:25:31;16.90;99.90
10873;DHT22;34586;53.616;10.032;2023-07-28T05:27:56;16.90;99.90
10873;DHT22;34586;53.616;10.032;2023-07-28T05:30:22;17.00;99.90
10873;DHT22;34586;53.616;10.032;2023-07-28T05:32:48;17.00;99.90
10873;DHT22;34586;53.616;10.032;2023-07-28T05:35:15;17.00;99.90
10873;DHT22;34586;53.616;10.032;2023-07-28T05:37:40;17.10;99.90
10873;DHT22;34586;53.616;10.032;2023-07-28T05:40:06;17.00;99.90
10873;DHT22;34586;53.616;10.032;2023-07-28T05:42:32;17.00;99.90
10873;DHT22;34586;53.616;10.032;2023-07-28T05:44:59;17.10;99.90
10873;DHT22;34586;53.616;10.032;2023-07-28T05:47:24;17.10;99.90
10873;DHT22;34586;53.616;10.032;2023-07-28T05:49:51;17.10;99.90
10873;DHT22;34586;53.616;10.032;2023-07-28T05:52:19;17.10;99.90
10873;DHT22;34586;53.616;10.032;2023-07-28T05:54:44;17.10;99.90
10873;DHT22;34586;53.616;10.032;2023-07-28T05:57:10;17.20;99.90
10873;DHT22;34586;53.616;10.032;2023-07-28T05:59:36;17.20;99.90
10873;DHT22;34586;53.616;10.032;2023-07-28T06:02:02;17.20;99.90
10873;DHT22;34586;53.616;10.032;2023-07-28T06:04:27;17.30;99.90
10873;DHT22;34586;53.616;10.032;2023-07-28T06:06:53;17.40;99.90
10873;DHT22;34586;53.616;10.032;2023-07-28T06:09:18;17.40;99.90
10873;DHT22;34586;53.616;10.032;2023-07-28T06:11:44;17.40;99.90
10873;DHT22;34586;53.616;10.032;2023-07-28T06:14:10;17.50;99.90
10873;DHT22;34586;53.616;10.032;2023-07-28T06:16:35;17.50;99.90
10873;DHT22;34586;53.616;10.032;2023-07-28T06:19:01;17.50;99.90
10873;DHT22;34586;53.616;10.032;2023-07-28T06:21:26;17.60;99.90
10873;DHT22;34586;53.616;10.032;2023-07-28T06:23:52;17.60;99.90
10873;DHT22;34586;53.616;10.032;2023-07-28T06:26:18;17.60;99.90
10873;DHT22;34586;53.616;10.032;2023-07-28T06:28:44;17.60;99.90
10873;DHT22;34586;53.616;10.032;2023-07-28T06:31:10;17.60;99.90
10873;DHT22;34586;53.616;10.032;2023-07-28T06:33:37;17.70;99.90
10873;DHT22;34586;53.616;10.032;2023-07-28T06:36:03;17.80;99.90
10873;DHT22;34586;53.616;10.032;2023-07-28T06:38:29;17.90;99.90
10873;DHT22;34586;53.616;10.032;2023-07-28T06:40:54;18.00;99.90
10873;DHT22;34586;53.616;10.032;2023-07-28T06:43:20;18.10;99.90
10873;DHT22;34586;53.616;10.032;2023-07-28T06:45:46;18.10;99.90
10873;DHT22;34586;53.616;10.032;2023-07-28T06:48:12;18.10;99.90
10873;DHT22;34586;53.616;10.032;2023-07-28T06:50:38;18.20;99.90
10873;DHT22;34586;53.616;10.032;2023-07-28T06:53:04;18.20;99.90
10873;DHT22;34586;53.616;10.032;2023-07-28T06:55:30;18.20;99.90
10873;DHT22;34586;53.616;10.032;2023-07-28T06:57:55;18.20;99.90
10873;DHT22;34586;53.616;10.032;2023-07-28T07:00:21;18.30;99.90
10873;DHT22;34586;53.616;10.032;2023-07-28T07:02:47;18.30;99.90
10873;DHT22;34586;53.616;10.032;2023-07-28T07:05:12;18.50;99.90
10873;DHT22;34586;53.616;10.032;2023-07-28T07:07:39;18.50;99.90
10873;DHT22;34586;53.616;10.032;2023-07-28T07:10:05;18.60;99.90
10873;DHT22;34586;53.616;10.032;2023-07-28T07:12:31;18.70;99.90
10873;DHT22;34586;53.616;10.032;2023-07-28T07:14:57;18.80;99.90
10873;DHT22;34586;53.616;10.032;2023-07-28T07:17:22;18.90;99.90
10873;DHT22;34586;53.616;10.032;2023-07-28T07:19:48;18.90;99.90
10873;DHT22;34586;53.616;10.032;2023-07-28T07:22:14;18.90;99.90
10873;DHT22;34586;53.616;10.032;2023-07-28T07:24:39;19.00;99.90
10873;DHT22;34586;53.616;10.032;2023-07-28T07:27:05;19.00;99.90
10873;DHT22;34586;53.616;10.032;2023-07-28T07:29:32;19.00;99.90
10873;DHT22;34586;53.616;10.032;2023-07-28T07:31:58;19.00;99.90
10873;DHT22;34586;53.616;10.032;2023-07-28T07:34:23;18.90;99.90
10873;DHT22;34586;53.616;10.032;2023-07-28T07:36:49;18.80;99.90
10873;DHT22;34586;53.616;10.032;2023-07-28T07:39:15;18.80;99.90
10873;DHT22;34586;53.616;10.032;2023-07-28T07:41:41;18.80;99.90
10873;DHT22;34586;53.616;10.032;2023-07-28T07:44:07;18.70;99.90
10873;DHT22;34586;53.616;10.032;2023-07-28T07:46:32;18.70;99.90
10873;DHT22;34586;53.616;10.032;2023-07-28T07:48:58;18.70;99.90
10873;DHT22;34586;53.616;10.032;2023-07-28T07:51:23;18.60;99.90
10873;DHT22;34586;53.616;10.032;2023-07-28T07:53:49;18.60;99.90
10873;DHT22;34586;53.616;10.032;2023-07-28T07:56:15;18.50;99.90
10873;DHT22;34586;53.616;10.032;2023-07-28T07:58:41;18.50;99.90
10873;DHT22;34586;53.616;10.032;2023-07-28T08:01:06;18.50;99.90
10873;DHT22;34586;53.616;10.032;2023-07-28T08:03:32;18.60;99.90
10873;DHT22;34586;53.616;10.032;2023-07-28T08:05:57;18.70;99.90
10873;DHT22;34586;53.616;10.032;2023-07-28T08:08:23;18.70;99.90
10873;DHT22;34586;53.616;10.032;2023-07-28T08:10:50;18.80;99.90
10873;DHT22;34586;53.616;10.032;2023-07-28T08:13:16;18.90;99.90
10873;DHT22;34586;53.616;10.032;2023-07-28T08:15:45;19.00;99.90
10873;DHT22;34586;53.616;10.032;2023-07-28T08:18:14;19.20;99.90
10873;DHT22;34586;53.616;10.032;2023-07-28T08:20:40;19.30;99.90
10873;DHT22;34586;53.616;10.032;2023-07-28T08:23:06;19.30;99.90
10873;DHT22;34586;53.616;10.032;2023-07-28T08:25:31;19.30;99.90
10873;DHT22;34586;53.616;10.032;2023-07-28T08:27:57;19.50;99.90
10873;DHT22;34586;53.616;10.032;2023-07-28T08:30:23;19.60;99.90
10873;DHT22;34586;53.616;10.032;2023-07-28T08:32:48;19.60;99.90
10873;DHT22;34586;53.616;10.032;2023-07-28T08:35:14;19.70;99.90
10873;DHT22;34586;53.616;10.032;2023-07-28T08:37:40;19.80;99.90
10873;DHT22;34586;53.616;10.032;2023-07-28T08:40:06;19.80;99.90
10873;DHT22;34586;53.616;10.032;2023-07-28T08:42:36;19.80;99.90
10873;DHT22;34586;53.616;10.032;2023-07-28T08:45:03;19.80;99.90
10873;DHT22;34586;53.616;10.032;2023-07-28T08:47:30;19.80;99.90
10873;DHT22;34586;53.616;10.032;2023-07-28T08:49:56;19.70;99.90
10873;DHT22;34586;53.616;10.032;2023-07-28T08:52:22;19.70;99.90
10873;DHT22;34586;53.616;10.032;2023-07-28T08:54:49;19.60;99.90
10873;DHT22;34586;53.616;10.032;2023-07-28T08:57:15;19.60;99.90
10873;DHT22;34586;53.616;10.032;2023-07-28T08:59:41;19.60;99.90
10873;DHT22;34586;53.616;10.032;2023-07-28T09:02:14;19.50;99.90
10873;DHT22;34586;53.616;10.032;2023-07-28T09:04:42;19.30;99.90
10873;DHT22;34586;53.616;10.032;2023-07-28T09:07:07;19.30;99.90
10873;DHT22;34586;53.616;10.032;2023-07-28T09:09:34;19.40;99.90
10873;DHT22;34586;53.616;10.032;2023-07-28T09:12:00;19.30;99.90
10873;DHT22;34586;53.616;10.032;2023-07-28T09:14:26;19.50;99.90
10873;DHT22;34586;53.616;10.032;2023-07-28T09:16:52;19.80;99.90
10873;DHT22;34586;53.616;10.032;2023-07-28T09:19:20;20.00;99.90
10873;DHT22;34586;53.616;10.032;2023-07-28T09:22:00;20.30;99.90
10873;DHT22;34586;53.616;10.032;2023-07-28T09:24:33;20.60;99.90
10873;DHT22;34586;53.616;10.032;2023-07-28T09:27:00;20.60;99.90
10873;DHT22;34586;53.616;10.032;2023-07-28T09:29:26;20.60;99.90
10873;DHT22;34586;53.616;10.032;2023-07-28T09:32:03;20.80;99.90
10873;DHT22;34586;53.616;10.032;2023-07-28T09:34:30;20.90;99.90
10873;DHT22;34586;53.616;10.032;2023-07-28T09:36:56;20.80;99.90
10873;DHT22;34586;53.616;10.032;2023-07-28T09:39:23;20.80;99.90
10873;DHT22;34586;53.616;10.032;2023-07-28T09:41:49;20.80;5.00
10873;DHT22;34586;53.616;10.032;2023-07-28T09:44:15;20.80;1.00
10873;DHT22;34586;53.616;10.032;2023-07-28T09:46:50;20.80;1.00
10873;DHT22;34586;53.616;10.032;2023-07-28T09:49:28;20.70;92.90
10873;DHT22;34586;53.616;10.032;2023-07-28T09:51:57;20.90;1.00
10873;DHT22;34586;53.616;10.032;2023-07-28T09:54:25;21.00;2.10
10873;DHT22;34586;53.616;10.032;2023-07-28T09:56:58;21.30;99.90
10873;DHT22;34586;53.616;10.032;2023-07-28T09:59:35;21.50;92.30
10873;DHT22;34586;53.616;10.032;2023-07-28T10:02:03;21.40;1.00
10873;DHT22;34586;53.616;10.032;2023-07-28T10:04:29;21.40;1.00
10873;DHT22;34586;53.616;10.032;2023-07-28T10:06:56;21.40;1.00
10873;DHT22;34586;53.616;10.032;2023-07-28T10:09:25;21.40;1.00
10873;DHT22;34586;53.616;10.032;2023-07-28T10:11:52;21.40;1.00
10873;DHT22;34586;53.616;10.032;2023-07-28T10:14:35;21.40;1.00
10873;DHT22;34586;53.616;10.032;2023-07-28T10:17:04;21.60;1.00
10873;DHT22;34586;53.616;10.032;2023-07-28T10:19:33;21.60;1.00
10873;DHT22;34586;53.616;10.032;2023-07-28T10:22:07;21.60;1.00
10873;DHT22;34586;53.616;10.032;2023-07-28T10:24:51;21.70;1.00
10873;DHT22;34586;53.616;10.032;2023-07-28T10:27:40;21.80;1.00
10873;DHT22;34586;53.616;10.032;2023-07-28T10:30:13;21.90;1.00
10873;DHT22;34586;53.616;10.032;2023-07-28T10:32:44;21.70;1.00
10873;DHT22;34586;53.616;10.032;2023-07-28T10:37:40;21.70;1.00
10873;DHT22;34586;53.616;10.032;2023-07-28T10:42:59;21.30;1.00
10873;DHT22;34586;53.616;10.032;2023-07-28T10:45:27;21.20;1.00
10873;DHT22;34586;53.616;10.032;2023-07-28T10:47:54;21.00;1.00
10873;DHT22;34586;53.616;10.032;2023-07-28T10:50:24;21.00;1.00
10873;DHT22;34586;53.616;10.032;2023-07-28T10:52:51;20.90;1.00
10873;DHT22;34586;53.616;10.032;2023-07-28T10:55:18;20.80;1.00
10873;DHT22;34586;53.616;10.032;2023-07-28T10:57:46;20.90;20.70
10873;DHT22;34586;53.616;10.032;2023-07-28T11:00:14;20.90;64.60
10873;DHT22;34586;53.616;10.032;2023-07-28T11:02:51;20.90;1.00
10873;DHT22;34586;53.616;10.032;2023-07-28T11:05:29;21.00;1.00
10873;DHT22;34586;53.616;10.032;2023-07-28T11:07:59;21.00;1.00
10873;DHT22;34586;53.616;10.032;2023-07-28T11:10:28;21.10;1.00
10873;DHT22;34586;53.616;10.032;2023-07-28T11:12:57;21.30;1.00
10873;DHT22;34586;53.616;10.032;2023-07-28T11:15:25;21.30;1.00
10873;DHT22;34586;53.616;10.032;2023-07-28T11:17:51;21.20;1.00
10873;DHT22;34586;53.616;10.032;2023-07-28T11:20:22;21.20;1.00
10873;DHT22;34586;53.616;10.032;2023-07-28T11:22:59;21.40;1.00
10873;DHT22;34586;53.616;10.032;2023-07-28T11:25:26;21.40;1.00
10873;DHT22;34586;53.616;10.032;2023-07-28T11:27:53;21.40;1.00
10873;DHT22;34586;53.616;10.032;2023-07-28T11:30:19;21.30;1.00
10873;DHT22;34586;53.616;10.032;2023-07-28T11:32:47;21.30;1.00
10873;DHT22;34586;53.616;10.032;2023-07-28T11:35:16;21.40;1.00
10873;DHT22;34586;53.616;10.032;2023-07-28T11:37:43;21.40;1.00
10873;DHT22;34586;53.616;10.032;2023-07-28T11:40:10;21.60;1.00
10873;DHT22;34586;53.616;10.032;2023-07-28T11:42:41;21.90;1.00
10873;DHT22;34586;53.616;10.032;2023-07-28T11:45:10;22.00;1.00
10873;DHT22;34586;53.616;10.032;2023-07-28T11:47:37;22.00;1.00
10873;DHT22;34586;53.616;10.032;2023-07-28T11:50:03;22.10;1.00
10873;DHT22;34586;53.616;10.032;2023-07-28T11:52:31;22.10;1.00
10873;DHT22;34586;53.616;10.032;2023-07-28T11:55:01;22.10;1.00
10873;DHT22;34586;53.616;10.032;2023-07-28T11:57:29;22.20;1.00
10873;DHT22;34586;53.616;10.032;2023-07-28T11:59:58;22.20;66.60
10873;DHT22;34586;53.616;10.032;2023-07-28T12:02:26;22.10;63.40
10873;DHT22;34586;53.616;10.032;2023-07-28T12:04:52;22.10;24.50
10873;DHT22;34586;53.616;10.032;2023-07-28T12:07:26;22.00;99.90
10873;DHT22;34586;53.616;10.032;2023-07-28T12:09:52;22.10;99.90
10873;DHT22;34586;53.616;10.032;2023-07-28T12:12:20;22.30;8.50
10873;DHT22;34586;53.616;10.032;2023-07-28T12:14:47;22.40;61.30
10873;DHT22;34586;53.616;10.032;2023-07-28T12:17:13;22.60;1.00
10873;DHT22;34586;53.616;10.032;2023-07-28T12:19:57;22.70;14.90
10873;DHT22;34586;53.616;10.032;2023-07-28T12:22:22;22.80;1.00
10873;DHT22;34586;53.616;10.032;2023-07-28T12:24:48;22.80;15.00
10873;DHT22;34586;53.616;10.032;2023-07-28T12:27:14;22.80;1.00
10873;DHT22;34586;53.616;10.032;2023-07-28T12:29:41;22.80;1.00
10873;DHT22;34586;53.616;10.032;2023-07-28T12:32:07;23.00;1.00
10873;DHT22;34586;53.616;10.032;2023-07-28T12:34:33;23.00;99.90
10873;DHT22;34586;53.616;10.032;2023-07-28T12:36:59;23.20;99.90
10873;DHT22;34586;53.616;10.032;2023-07-28T12:39:24;23.30;1.00
10873;DHT22;34586;53.616;10.032;2023-07-28T12:41:50;23.50;99.90
10873;DHT22;34586;53.616;10.032;2023-07-28T12:44:19;23.60;1.00
10873;DHT22;34586;53.616;10.032;2023-07-28T12:46:45;23.40;1.00
10873;DHT22;34586;53.616;10.032;2023-07-28T12:49:10;23.30;1.00
10873;DHT22;34586;53.616;10.032;2023-07-28T12:51:36;23.30;1.00
10873;DHT22;34586;53.616;10.032;2023-07-28T12:54:02;23.10;1.00
10873;DHT22;34586;53.616;10.032;2023-07-28T12:56:27;23.00;1.00
10873;DHT22;34586;53.616;10.032;2023-07-28T12:58:53;23.10;99.90
10873;DHT22;34586;53.616;10.032;2023-07-28T13:01:18;23.10;1.00
10873;DHT22;34586;53.616;10.032;2023-07-28T13:03:44;23.20;1.00
10873;DHT22;34586;53.616;10.032;2023-07-28T13:06:09;23.10;1.00
10873;DHT22;34586;53.616;10.032;2023-07-28T13:08:35;23.30;1.00
10873;DHT22;34586;53.616;10.032;2023-07-28T13:11:01;23.30;1.00
10873;DHT22;34586;53.616;10.032;2023-07-28T13:13:27;23.30;1.00
10873;DHT22;34586;53.616;10.032;2023-07-28T13:15:55;23.10;1.00
10873;DHT22;34586;53.616;10.032;2023-07-28T13:18:20;22.80;1.00
10873;DHT22;34586;53.616;10.032;2023-07-28T13:20:46;22.60;1.00
10873;DHT22;34586;53.616;10.032;2023-07-28T13:23:11;22.40;99.90
10873;DHT22;34586;53.616;10.032;2023-07-28T13:25:37;22.40;99.90
10873;DHT22;34586;53.616;10.032;2023-07-28T13:28:04;22.40;99.90
10873;DHT22;34586;53.616;10.032;2023-07-28T13:30:29;22.50;99.90
10873;DHT22;34586;53.616;10.032;2023-07-28T13:32:55;22.70;99.90
10873;DHT22;34586;53.616;10.032;2023-07-28T13:35:21;22.80;99.90
10873;DHT22;34586;53.616;10.032;2023-07-28T13:37:47;23.00;99.90
10873;DHT22;34586;53.616;10.032;2023-07-28T13:40:12;23.30;1.00
10873;DHT22;34586;53.616;10.032;2023-07-28T13:42:38;23.80;1.00
10873;DHT22;34586;53.616;10.032;2023-07-28T13:45:04;24.10;1.00
10873;DHT22;34586;53.616;10.032;2023-07-28T13:47:29;24.30;99.90
10873;DHT22;34586;53.616;10.032;2023-07-28T13:49:55;24.50;99.90
10873;DHT22;34586;53.616;10.032;2023-07-28T13:52:20;24.50;99.90
10873;DHT22;34586;53.616;10.032;2023-07-28T13:54:46;24.60;1.00
10873;DHT22;34586;53.616;10.032;2023-07-28T13:57:12;24.80;99.90
10873;DHT22;34586;53.616;10.032;2023-07-28T13:59:38;24.80;99.90
10873;DHT22;34586;53.616;10.032;2023-07-28T14:02:04;24.70;86.10
10873;DHT22;34586;53.616;10.032;2023-07-28T14:04:29;24.50;97.60
10873;DHT22;34586;53.616;10.032;2023-07-28T14:06:55;24.40;99.90
10873;DHT22;34586;53.616;10.032;2023-07-28T14:09:20;24.40;99.90
10873;DHT22;34586;53.616;10.032;2023-07-28T14:11:46;24.30;99.90
10873;DHT22;34586;53.616;10.032;2023-07-28T14:14:11;24.20;70.30
10873;DHT22;34586;53.616;10.032;2023-07-28T14:16:37;24.00;99.90
10873;DHT22;34586;53.616;10.032;2023-07-28T14:19:02;24.20;99.90
10873;DHT22;34586;53.616;10.032;2023-07-28T14:21:29;24.60;1.00
10873;DHT22;34586;53.616;10.032;2023-07-28T14:23:54;24.70;99.90
10873;DHT22;34586;53.616;10.032;2023-07-28T14:26:20;24.90;99.90
10873;DHT22;34586;53.616;10.032;2023-07-28T14:28:45;25.00;99.90
10873;DHT22;34586;53.616;10.032;2023-07-28T14:31:11;25.10;41.30
10873;DHT22;34586;53.616;10.032;2023-07-28T14:33:36;25.10;93.90
10873;DHT22;34586;53.616;10.032;2023-07-28T14:36:02;24.80;99.90
10873;DHT22;34586;53.616;10.032;2023-07-28T14:38:28;24.60;1.00
10873;DHT22;34586;53.616;10.032;2023-07-28T14:40:53;24.40;53.80
10873;DHT22;34586;53.616;10.032;2023-07-28T14:43:19;24.10;99.90
10873;DHT22;34586;53.616;10.032;2023-07-28T14:45:45;23.90;99.90
10873;DHT22;34586;53.616;10.032;2023-07-28T14:48:10;23.90;99.90
10873;DHT22;34586;53.616;10.032;2023-07-28T14:50:36;24.00;99.90
10873;DHT22;34586;53.616;10.032;2023-07-28T14:53:02;24.20;99.90
10873;DHT22;34586;53.616;10.032;2023-07-28T14:55:27;24.40;1.00
10873;DHT22;34586;53.616;10.032;2023-07-28T14:57:53;24.60;99.90
10873;DHT22;34586;53.616;10.032;2023-07-28T15:00:19;24.60;99.90
10873;DHT22;34586;53.616;10.032;2023-07-28T15:02:44;24.20;1.00
10873;DHT22;34586;53.616;10.032;2023-07-28T15:05:10;24.40;1.00
10873;DHT22;34586;53.616;10.032;2023-07-28T15:07:36;24.30;99.90
10873;DHT22;34586;53.616;10.032;2023-07-28T15:10:03;24.10;1.00
10873;DHT22;34586;53.616;10.032;2023-07-28T15:12:29;24.00;99.90
10873;DHT22;34586;53.616;10.032;2023-07-28T15:14:55;23.80;99.90
10873;DHT22;34586;53.616;10.032;2023-07-28T15:17:20;23.70;1.00
10873;DHT22;34586;53.616;10.032;2023-07-28T15:19:46;23.70;1.00
10873;DHT22;34586;53.616;10.032;2023-07-28T15:22:11;23.90;1.00
10873;DHT22;34586;53.616;10.032;2023-07-28T15:24:37;24.00;1.00